createdAt,value
2019-05-10T05:11:29.914Z,8.89
2019-05-10T05:21:29.464Z,8.84
2019-05-10T05:31:29.423Z,8.67
2019-05-10T05:41:31.912Z,8.65
2019-05-10T05:51:29.682Z,8.57
2019-05-10T06:01:29.774Z,8.45
2019-05-10T06:11:29.728Z,8.03
2019-05-10T06:21:29.756Z,7.76
2019-05-10T06:31:29.416Z,8.08
2019-05-10T06:41:32.442Z,8.01
2019-05-10T06:51:29.668Z,7.66
2019-05-10T07:01:29.218Z,7.86
2019-05-10T07:11:29.792Z,7.71
2019-05-10T07:21:29.688Z,7.97
2019-05-10T07:31:30.569Z,8.07
2019-05-10T07:41:29.598Z,7.79
2019-05-10T07:51:30.362Z,7.87
2019-05-10T08:01:32.363Z,7.89
2019-05-10T08:11:29.639Z,8.09
2019-05-10T08:21:32.041Z,8.22
2019-05-10T08:31:31.876Z,8.58
2019-05-10T08:41:29.400Z,8.49
2019-05-10T08:51:29.676Z,8.66
2019-05-10T09:01:31.357Z,8.57
2019-05-10T09:11:29.678Z,8.66
2019-05-10T09:21:32.031Z,9.10
2019-05-10T09:31:29.638Z,9.41
2019-05-10T09:41:35.995Z,9.02
2019-05-10T09:51:30.975Z,8.83
2019-05-10T10:01:30.471Z,8.52
2019-05-10T10:11:29.733Z,8.43
2019-05-10T10:21:35.157Z,8.61
2019-05-10T10:31:33.050Z,8.43
2019-05-10T10:41:31.926Z,8.21
2019-05-10T10:51:31.974Z,7.69
2019-05-10T11:01:45.663Z,7.79
2019-05-10T11:11:38.462Z,8.12
2019-05-10T11:21:32.899Z,7.93
2019-05-10T11:31:31.227Z,7.58
2019-05-10T11:41:31.460Z,7.21
2019-05-10T11:51:31.528Z,6.88
2019-05-10T12:01:29.677Z,6.47
2019-05-10T12:11:33.806Z,6.74
2019-05-10T12:21:33.125Z,6.53
2019-05-10T12:31:31.117Z,6.91
2019-05-10T12:41:31.594Z,6.54
2019-05-10T12:51:31.251Z,6.49
2019-05-10T13:01:31.740Z,6.48
2019-05-10T13:11:32.569Z,7.00
2019-05-10T13:21:30.611Z,6.21
2019-05-10T13:31:29.586Z,6.30
2019-05-10T13:41:29.755Z,5.89
2019-05-10T13:51:29.404Z,6.50
2019-05-10T14:01:29.672Z,6.68
2019-05-10T14:11:34.108Z,6.68
2019-05-10T14:21:29.711Z,7.12
2019-05-10T14:31:30.620Z,6.22
2019-05-10T14:41:29.860Z,6.08
2019-05-10T14:51:44.086Z,6.88
2019-05-10T15:01:30.225Z,5.61
2019-05-10T15:11:33.218Z,5.73
2019-05-10T15:21:29.844Z,5.36
2019-05-10T15:31:30.847Z,5.38
2019-05-10T15:41:29.676Z,6.44
2019-05-10T15:51:36.095Z,6.09
2019-05-10T16:01:32.324Z,5.88
2019-05-10T16:11:29.923Z,6.59
2019-05-10T16:21:29.871Z,5.31
2019-05-10T16:31:29.930Z,5.71
2019-05-10T16:41:29.907Z,5.67
2019-05-10T16:51:30.312Z,5.75
2019-05-10T17:01:33.381Z,5.31
2019-05-10T17:11:29.797Z,5.84
2019-05-10T17:21:30.155Z,6.36
2019-05-10T17:31:29.958Z,6.36
2019-05-10T17:41:30.023Z,5.90
2019-05-10T17:51:28.746Z,5.72
2019-05-10T18:01:28.814Z,5.58
2019-05-10T18:11:29.723Z,5.74
2019-05-10T18:21:30.394Z,5.73
2019-05-10T18:31:29.837Z,5.50
2019-05-10T18:41:29.820Z,5.39
2019-05-10T18:51:29.683Z,6.09
2019-05-10T19:01:32.830Z,6.00
